Time;durP1;ratioP1;P1;durP2;ratioP2;P2;SDS_P1;SDS_P2;PMS_P1;PMS_P2;Temp;Humidity;BMP_temperature;BMP_pressure;BME280_temperature;BME280_humidity;BME280_pressure;Samples;Min_cycle;Max_cycle;Signal;HPM_P1;HPM_P2
2022/05/03 00:02:25;;;;;;;9.70;5.30;;;;;;;8.95;66.16;101045.46;108686;1238;71908;-86
2022/05/03 00:05:04;;;;;;;7.40;4.90;;;;;;;8.95;63.30;101043.23;108919;1235;60209;-83
2022/05/03 00:07:41;;;;;;;10.50;5.60;;;;;;;9.13;63.09;101045.41;108483;1237;60394;-81
2022/05/03 00:10:24;;;;;;;7.90;4.90;;;;;;;9.12;64.08;101050.35;108698;1236;71310;-81
2022/05/03 00:13:08;;;;;;;7.20;5.10;;;;;;;9.02;64.89;101049.20;108602;1236;69683;-81
2022/05/03 00:15:40;;;;;;;9.30;5.20;;;;;;;8.92;63.92;101048.08;108768;1234;68613;-85
2022/05/03 00:18:08;;;;;;;9.90;5.40;;;;;;;8.95;62.43;101049.45;108857;1235;72530;-83
2022/05/03 00:20:37;;;;;;;10.10;5.40;;;;;;;8.97;63.14;101051.27;109012;1235;60521;-88
2022/05/03 00:23:05;;;;;;;10.30;5.80;;;;;;;8.98;63.57;101050.85;108928;1235;61610;-85
2022/05/03 00:25:33;;;;;;;6.00;4.40;;;;;;;9.00;63.31;101052.48;108549;1235;73488;-85
2022/05/03 00:28:01;;;;;;;6.30;4.90;;;;;;;9.03;62.07;101044.45;108825;1235;70173;-86
2022/05/03 00:30:30;;;;;;;7.00;4.50;;;;;;;9.09;62.41;101044.64;108713;1235;68611;-86
2022/05/03 00:32:59;;;;;;;8.70;5.10;;;;;;;9.08;62.56;101041.93;109052;1235;73855;-85
2022/05/03 00:35:28;;;;;;;8.70;5.20;;;;;;;9.05;63.46;101038.29;108946;1235;60847;-87
2022/05/03 00:37:56;;;;;;;8.10;4.50;;;;;;;8.99;62.62;101036.68;108984;1235;61095;-85
2022/05/03 00:40:24;;;;;;;8.90;4.20;;;;;;;8.99;61.02;101032.91;109080;1235;71348;-83
2022/05/03 00:43:31;;;;;;;5.80;4.30;;;;;;;9.24;62.05;101029.11;109488;1235;69493;-84
2022/05/03 00:46:07;;;;;;;4.30;3.60;;;;;;;9.19;61.48;101032.34;108649;1235;70490;-87
2022/05/03 00:49:12;;;;;;;6.50;4.20;;;;;;;9.22;60.71;101030.23;108946;1235;72412;-86
2022/05/03 00:52:05;;;;;;;6.80;4.40;;;;;;;9.24;60.24;101023.85;108720;1235;60587;-84
2022/05/03 00:55:11;;;;;;;6.50;4.10;;;;;;;9.22;60.87;101026.60;108525;1235;61676;-83
2022/05/03 00:58:04;;;;;;;8.90;4.70;;;;;;;9.26;59.32;101023.05;108261;1238;74249;-87
2022/05/03 01:00:59;;;;;;;7.10;4.50;;;;;;;9.25;60.17;101018.95;108824;1235;72865;-83
2022/05/03 01:04:06;;;;;;;5.40;4.40;;;;;;;9.24;60.92;101021.79;108527;1236;68254;-84
2022/05/03 01:06:52;;;;;;;5.60;3.80;;;;;;;9.17;61.16;101022.38;108102;1234;72009;-86
2022/05/03 01:09:41;;;;;;;5.90;4.10;;;;;;;9.13;60.80;101016.73;108510;1235;60164;-87
2022/05/03 01:12:39;;;;;;;6.60;4.60;;;;;;;9.09;61.83;101016.48;108677;1235;60398;-86
2022/05/03 01:15:25;;;;;;;5.10;4.20;;;;;;;9.04;61.88;101020.80;108879;1235;74037;-86
2022/05/03 01:18:11;;;;;;;9.20;4.70;;;;;;;8.99;62.86;101019.83;108933;1235;69916;-87
2022/05/03 01:20:50;;;;;;;7.20;3.60;;;;;;;8.93;62.51;101017.27;109016;1235;68708;-85
2022/05/03 01:23:44;;;;;;;6.90;4.20;;;;;;;8.92;60.20;101012.97;109098;1235;73840;-85
2022/05/03 01:26:23;;;;;;;;;;;;;;;9.02;60.73;101012.74;108894;1235;60591;-85
2022/05/03 01:29:15;;;;;;;4.50;3.20;;;;;;;9.04;60.63;101013.00;109048;1235;62537;-86
2022/05/03 01:31:42;;;;;;;6.70;4.00;;;;;;;9.09;58.92;101008.67;108994;1235;72115;-86
2022/05/03 01:34:13;;;;;;;4.90;3.60;;;;;;;9.16;59.28;101013.80;109257;1235;72226;-86
2022/05/03 01:36:59;;;;;;;5.90;3.80;;;;;;;9.20;59.67;101013.00;109129;1235;70421;-86
2022/05/03 01:40:06;;;;;;;5.60;4.10;;;;;;;9.23;59.48;101013.72;109114;1235;73582;-87
2022/05/03 01:43:12;;;;;;;6.70;4.00;;;;;;;9.22;59.87;101011.52;108993;1236;60291;-86
2022/05/03 01:46:18;;;;;;;6.50;4.00;;;;;;;9.17;59.08;101009.71;108891;1235;60531;-85
2022/05/03 01:52:50;;;;;;;7.00;4.70;;;;;;;9.11;60.78;101012.02;109735;1235;72444;-88
2022/05/03 01:55:36;;;;;;;7.10;4.30;;;;;;;9.01;61.00;101004.30;108806;1236;69224;-85
2022/05/03 01:58:27;;;;;;;5.00;3.80;;;;;;;9.00;61.52;101012.86;109487;1234;74122;-82
2022/05/03 02:01:00;;;;;;;9.50;4.20;;;;;;;8.93;62.73;101012.21;108390;1235;58923;-82
2022/05/03 02:03:30;;;;;;;;;;;;;;;8.86;62.61;101011.12;108888;1235;58893;-81
2022/05/03 02:06:09;;;;;;;5.30;3.60;;;;;;;8.76;62.94;101010.30;108844;1235;72188;-81
2022/05/03 02:09:06;;;;;;;6.80;4.00;;;;;;;8.67;62.63;101009.64;108860;1235;70369;-78
2022/05/03 02:12:07;;;;;;;7.10;4.10;;;;;;;8.57;64.24;101013.03;108513;1235;70971;-80
2022/05/03 02:14:45;;;;;;;5.70;4.10;;;;;;;8.47;63.79;101017.73;108921;1235;74373;-80
2022/05/03 02:17:27;;;;;;;5.90;4.10;;;;;;;8.43;65.96;101015.39;108875;1236;60715;-80
2022/05/03 02:20:37;;;;;;;5.70;4.20;;;;;;;8.38;64.55;101013.79;109046;1235;59876;-78
2022/05/03 02:23:24;;;;;;;6.40;4.30;;;;;;;8.33;64.82;101013.67;109276;1235;72945;-84
2022/05/03 02:26:24;;;;;;;9.00;4.40;;;;;;;8.29;64.41;101015.32;108868;1235;72651;-83
2022/05/03 02:29:02;;;;;;;6.30;4.30;;;;;;;8.26;64.21;101017.58;108957;1234;69876;-83
2022/05/03 02:31:48;;;;;;;6.60;4.40;;;;;;;8.21;66.54;101017.33;108750;1235;74483;-84
2022/05/03 02:34:45;;;;;;;5.80;3.80;;;;;;;8.15;65.43;101015.22;109318;1235;61141;-83
2022/05/03 02:37:37;;;;;;;5.40;3.90;;;;;;;8.11;65.23;101021.21;109068;1235;61649;-82
2022/05/03 02:40:11;;;;;;;5.90;4.10;;;;;;;8.04;65.28;101024.55;109154;1235;73985;-84
2022/05/03 02:42:40;;;;;;;6.40;4.00;;;;;;;8.00;66.82;101026.73;109295;1235;72826;-85
2022/05/03 02:45:08;;;;;;;5.30;4.20;;;;;;;7.96;66.60;101024.60;109157;1234;68502;-83
2022/05/03 02:47:41;;;;;;;7.50;4.00;;;;;;;7.92;66.96;101024.51;109356;1236;71989;-88
2022/05/03 02:50:30;;;;;;;5.90;4.20;;;;;;;7.88;66.16;101023.54;110228;1234;60623;-90
2022/05/03 02:53:02;;;;;;;7.70;4.40;;;;;;;7.77;67.67;101009.23;110790;1235;60816;-89
2022/05/03 02:55:52;;;;;;;10.80;5.10;;;;;;;7.83;66.35;101020.55;110215;1235;71402;-82
2022/05/03 02:58:53;;;;;;;16.70;5.60;;;;;;;7.82;66.42;101021.82;109236;1235;69610;-83
2022/05/03 03:01:47;;;;;;;8.30;4.30;;;;;;;7.86;66.09;101023.83;109358;1234;68620;-83
2022/05/03 03:04:57;;;;;;;7.80;4.50;;;;;;;7.91;65.62;101021.14;110902;1235;71673;-82
2022/05/03 03:08:34;;;;;;;13.20;4.70;;;;;;;7.95;67.56;101025.91;110671;1238;60993;-83
2022/05/03 03:17:33;;;;;;;8.80;5.10;;;;;;;8.09;66.70;101024.45;109500;1249;72981;-84
2022/05/03 03:31:00;;;;;;;8.10;5.20;;;;;;;8.07;68.83;101020.88;107904;1264;72399;-82
2022/05/03 03:39:58;;;;;;;11.50;5.30;;;;;;;8.35;67.79;101029.02;107509;1270;59438;-82
2022/05/03 04:13:40;;;;;;;17.60;8.20;;;;;;;9.53;65.66;101041.52;110782;1231;72050;-79
2022/05/03 04:16:08;;;;;;;12.40;6.80;;;;;;;9.70;65.12;101045.50;110007;1238;71323;-79
2022/05/03 04:18:44;;;;;;;21.30;9.50;;;;;;;9.86;64.63;101046.92;109682;1238;73611;-81
2022/05/03 04:30:06;;;;;;;8.70;4.50;;;;;;;10.56;59.82;101033.83;110170;1235;70957;-80
2022/05/03 04:32:53;;;;;;;10.40;4.70;;;;;;;10.75;58.50;101037.95;110204;1235;69634;-79
2022/05/03 04:35:20;;;;;;;12.60;5.80;;;;;;;10.90;57.80;101036.41;110260;1235;69698;-80
2022/05/03 04:39:23;;;;;;;10.30;5.00;;;;;;;11.09;58.01;101038.91;110683;1236;74615;-82
2022/05/03 04:46:32;;;;;;;14.60;6.40;;;;;;;11.40;56.03;101034.86;111175;1231;61052;-82
2022/05/03 04:50:20;;;;;;;15.20;6.80;;;;;;;11.55;56.87;101033.46;110778;1238;72014;-85
2022/05/03 04:54:21;;;;;;;17.20;5.90;;;;;;;11.66;57.07;101032.86;111144;1230;70108;-83
2022/05/03 05:10:33;;;;;;;;;;;;;;;;;;;;;
2022/05/03 05:27:45;;;;;;;8.90;5.00;;;;;;;12.62;53.93;101022.81;111482;1230;68767;-85
2022/05/03 06:45:15;;;;;;;11.40;5.90;;;;;;;15.70;42.49;101016.35;110227;1233;72611;-77
2022/05/03 06:52:48;;;;;;;9.30;6.00;;;;;;;15.98;41.24;101013.83;110199;1233;60537;-77
2022/05/03 06:55:15;;;;;;;13.40;6.30;;;;;;;16.29;40.91;101017.31;109844;1233;73395;-77
2022/05/03 06:59:26;;;;;;;11.70;5.50;;;;;;;16.45;41.41;101016.79;109885;1234;71812;-78
2022/05/03 07:03:39;;;;;;;21.10;6.30;;;;;;;16.92;40.38;101014.33;109978;1235;68982;-78
2022/05/03 07:06:08;;;;;;;10.20;5.70;;;;;;;17.17;40.48;101013.38;110295;1233;71138;-79
2022/05/03 07:08:37;;;;;;;17.70;6.00;;;;;;;17.37;39.15;101007.88;110365;1232;60608;-79
2022/05/03 07:11:04;;;;;;;10.90;5.50;;;;;;;17.23;38.68;101010.83;110406;1233;59229;-81
2022/05/03 07:24:36;;;;;;;7.10;3.40;;;;;;;17.57;37.32;101010.19;110202;1233;74130;-79
2022/05/03 07:27:04;;;;;;;5.80;3.40;;;;;;;17.83;37.52;101009.26;109965;1233;60786;-74
2022/05/03 07:29:32;;;;;;;15.00;3.90;;;;;;;17.81;36.57;101009.13;108625;1233;61110;-76
2022/05/03 07:31:59;;;;;;;10.50;3.70;;;;;;;18.16;36.59;101003.33;108734;1234;71774;-79
2022/05/03 07:34:26;;;;;;;10.10;3.90;;;;;;;18.36;36.32;101006.32;108975;1233;72325;-76
2022/05/03 07:36:54;;;;;;;8.20;3.50;;;;;;;18.45;35.37;101006.46;108724;1233;70337;-76
2022/05/03 07:39:21;;;;;;;7.80;3.10;;;;;;;18.63;35.91;101010.06;109153;1233;72386;-77
2022/05/03 07:41:49;;;;;;;8.40;3.50;;;;;;;18.71;35.29;101007.73;109275;1232;61401;-77
2022/05/03 07:44:16;;;;;;;6.50;3.50;;;;;;;18.49;34.30;101006.62;108866;1235;59961;-77
2022/05/03 07:46:44;;;;;;;4.90;3.10;;;;;;;18.52;33.94;101010.31;108618;1233;73635;-77
2022/05/03 07:49:12;;;;;;;6.50;3.00;;;;;;;18.39;33.63;101010.45;109049;1233;71689;-78
2022/05/03 07:51:44;;;;;;;7.40;3.20;;;;;;;18.64;34.54;101006.63;109160;1233;70776;-75
2022/05/03 07:54:11;;;;;;;5.40;3.20;;;;;;;18.84;34.62;101007.98;109135;1235;71625;-74
2022/05/03 07:56:38;;;;;;;8.60;3.60;;;;;;;18.98;34.55;101009.68;109593;1233;60349;-77
2022/05/03 07:59:41;;;;;;;5.40;3.00;;;;;;;19.07;34.35;101007.73;110604;1232;57399;-79
2022/05/03 08:02:08;;;;;;;5.20;2.90;;;;;;;19.01;33.45;101006.08;110529;1233;73581;-78
2022/05/03 08:14:21;;;;;;;7.40;2.70;;;;;;;19.17;33.38;101003.98;110648;1235;62991;-78
2022/05/03 08:16:49;;;;;;;4.70;3.10;;;;;;;19.43;33.56;101002.73;110629;1233;60493;-79
2022/05/03 08:19:16;;;;;;;8.60;3.00;;;;;;;19.65;32.85;101000.79;110463;1232;57522;-79
2022/05/03 08:21:44;;;;;;;7.10;3.10;;;;;;;19.81;32.64;101008.29;110779;1232;62207;-79
2022/05/03 08:24:11;;;;;;;6.40;2.60;;;;;;;20.17;31.81;101007.23;110262;1233;62429;-76
2022/05/03 08:26:38;;;;;;;4.90;2.50;;;;;;;20.22;30.81;101006.48;110210;1233;71596;-77
2022/05/03 08:53:51;;;;;;;4.70;2.70;;;;;;;20.20;30.29;100998.22;110877;1233;59019;-78
2022/05/03 09:00:56;;;;;;;5.60;2.60;;;;;;;20.82;29.49;100987.00;110208;1233;58946;-78
2022/05/03 09:05:00;;;;;;;6.00;2.80;;;;;;;20.84;29.61;100988.11;110264;1233;60406;-78
2022/05/03 09:15:57;;;;;;;4.20;2.60;;;;;;;20.64;28.91;100984.56;110179;1238;69702;-80
2022/05/03 09:19:29;;;;;;;6.20;2.50;;;;;;;20.68;29.14;100977.88;110209;1236;74213;-80
2022/05/03 09:26:30;;;;;;;4.90;2.50;;;;;;;20.98;29.20;100973.91;109908;1238;61103;-78
2022/05/03 09:30:04;;;;;;;8.00;2.80;;;;;;;21.33;28.10;100970.83;110222;1238;64631;-77
2022/05/03 09:33:41;;;;;;;4.10;2.20;;;;;;;20.81;28.63;100960.88;109739;1238;61616;-78
2022/05/03 09:36:11;;;;;;;5.60;2.60;;;;;;;20.89;29.18;100961.19;109337;1239;70100;-77
2022/05/03 09:39:05;;;;;;;6.20;2.10;;;;;;;21.28;28.21;100960.92;109761;1236;73482;-77
2022/05/03 09:46:52;;;;;;;4.60;2.50;;;;;;;21.30;27.72;100958.48;110114;1235;60628;-80
2022/05/03 09:50:57;;;;;;;7.40;2.70;;;;;;;21.52;26.32;100960.48;110465;1233;73406;-81
2022/05/03 09:53:28;;;;;;;3.10;1.90;;;;;;;21.16;26.54;100960.98;110297;1233;61951;-80
2022/05/03 10:00:33;;;;;;;6.60;2.20;;;;;;;20.90;26.36;100959.68;110203;1235;65068;-79
2022/05/03 10:04:06;;;;;;;7.30;2.90;;;;;;;20.75;26.05;100954.80;110156;1233;60451;-81
2022/05/03 10:11:45;;;;;;;6.20;3.00;;;;;;;21.12;27.42;100945.88;109705;1233;72763;-78
2022/05/03 10:14:13;;;;;;;6.70;3.10;;;;;;;21.24;27.70;100943.64;110050;1235;61974;-79
2022/05/03 10:21:39;;;;;;;6.90;2.70;;;;;;;21.34;27.77;100932.02;109484;1239;72847;-79
2022/05/03 10:48:41;;;;;;;4.20;1.80;;;;;;;23.51;23.79;100918.41;108845;1238;66330;-80
2022/05/03 10:52:46;;;;;;;5.50;2.60;;;;;;;24.16;22.83;100917.68;108773;1239;59092;-75
2022/05/03 10:55:15;;;;;;;5.30;2.10;;;;;;;23.25;23.45;100913.05;109002;1238;58644;-80
2022/05/03 10:59:18;;;;;;;5.10;1.80;;;;;;;23.83;22.74;100907.46;108865;1237;62749;-78
2022/05/03 11:10:58;;;;;;;5.40;2.40;;;;;;;23.01;23.99;100894.14;109159;1236;75776;-80
2022/05/03 11:13:58;;;;;;;7.10;2.80;;;;;;;23.46;23.34;100891.90;109007;1236;58913;-79
2022/05/03 11:21:14;;;;;;;7.40;3.40;;;;;;;23.27;23.50;100881.41;109315;1234;73624;-83
2022/05/03 11:28:18;;;;;;;5.20;2.30;;;;;;;23.69;22.69;100875.11;109292;1233;61740;-79
2022/05/03 11:30:46;;;;;;;4.90;2.40;;;;;;;23.55;22.98;100868.06;109054;1233;74872;-80
2022/05/03 11:47:10;;;;;;;4.50;2.10;;;;;;;23.60;22.06;100843.80;109529;1233;60756;-76
2022/05/03 11:58:54;;;;;;;7.40;2.30;;;;;;;24.20;21.58;100825.09;109345;1234;58617;-76
2022/05/03 12:02:22;;;;;;;5.70;2.00;;;;;;;24.42;21.34;100828.46;109399;1233;61653;-77
2022/05/03 12:20:00;;;;;;;5.60;2.50;;;;;;;25.99;18.69;100807.35;109343;1233;62685;-78
2022/05/03 12:27:16;;;;;;;3.00;1.90;;;;;;;23.74;21.74;100803.02;109397;1234;61312;-78
2022/05/03 12:34:24;;;;;;;4.70;2.50;;;;;;;25.29;19.95;100792.09;109073;1235;72976;-78
2022/05/03 12:41:00;;;;;;;5.80;2.40;;;;;;;25.67;20.29;100791.14;109203;1235;74768;-78
2022/05/03 12:52:49;;;;;;;4.60;2.30;;;;;;;24.97;20.69;100789.86;109399;1234;72858;-78
2022/05/03 12:55:19;;;;;;;6.40;2.10;;;;;;;26.08;19.65;100787.93;109484;1234;72244;-77
2022/05/03 13:02:24;;;;;;;5.50;2.40;;;;;;;25.08;20.51;100785.39;109885;1234;64620;-76
2022/05/03 13:04:53;;;;;;;6.10;2.10;;;;;;;24.95;20.29;100776.61;109781;1233;61386;-76
2022/05/03 13:07:21;;;;;;;4.20;1.90;;;;;;;24.83;20.20;100773.42;110665;1232;59119;-77
2022/05/03 13:23:56;;;;;;;4.80;1.90;;;;;;;24.41;17.78;100771.11;111183;1233;63071;-80
2022/05/03 13:41:54;;;;;;;4.70;1.80;;;;;;;24.51;17.64;100769.23;109843;1239;61151;-81
2022/05/03 13:50:08;;;;;;;4.90;2.00;;;;;;;23.67;18.73;100768.08;110061;1233;62691;-77
2022/05/03 14:02:18;;;;;;;7.10;1.80;;;;;;;23.08;20.96;100762.56;109859;1234;63511;-79
2022/05/03 14:04:46;;;;;;;3.10;1.80;;;;;;;23.68;20.54;100765.42;110308;1233;71372;-80
2022/05/03 14:07:13;;;;;;;3.80;2.10;;;;;;;23.68;20.42;100760.09;110209;1236;59526;-81
2022/05/03 14:14:19;;;;;;;4.50;2.00;;;;;;;23.19;21.59;100762.70;109641;1233;60696;-81
2022/05/03 14:21:23;;;;;;;4.30;2.00;;;;;;;23.34;21.29;100765.70;109609;1234;73092;-77
2022/05/03 14:25:27;;;;;;;5.70;1.70;;;;;;;24.07;20.75;100765.69;110475;1235;62255;-81
2022/05/03 14:28:27;;;;;;;3.60;1.80;;;;;;;25.11;19.45;100762.34;110523;1237;59717;-79
2022/05/03 14:40:45;;;;;;;6.20;2.10;;;;;;;22.59;22.32;100764.79;110727;1237;58690;-80
2022/05/03 14:43:13;;;;;;;7.80;2.70;;;;;;;22.95;22.01;100764.99;110587;1234;63950;-80
2022/05/03 14:54:05;;;;;;;5.80;2.50;;;;;;;22.42;22.27;100777.77;110789;1234;63069;-79
2022/05/03 15:18:12;;;;;;;7.30;2.50;;;;;;;21.84;22.21;100783.33;109557;1234;75253;-77
2022/05/03 15:25:12;;;;;;;5.60;2.40;;;;;;;20.98;22.81;100775.23;109494;1234;62641;-78
2022/05/03 15:27:39;;;;;;;4.60;2.20;;;;;;;20.91;22.48;100775.08;109322;1234;62823;-77
2022/05/03 15:30:08;;;;;;;4.80;2.20;;;;;;;20.89;22.36;100773.60;109354;1234;60909;-78
2022/05/03 15:42:23;;;;;;;;;;;;;;;20.23;23.47;100770.62;109171;1235;59064;-77
2022/05/03 15:54:50;;;;;;;6.90;2.90;;;;;;;19.97;23.75;100760.83;109159;1234;71385;-77
2022/05/03 16:06:36;;;;;;;5.60;2.50;;;;;;;19.63;24.81;100763.49;109162;1234;60255;-78
2022/05/03 16:09:07;;;;;;;6.50;2.50;;;;;;;19.56;24.89;100758.12;109319;1235;59488;-77
2022/05/03 16:12:11;;;;;;;4.60;2.70;;;;;;;19.48;25.04;100759.19;109140;1235;62949;-79
2022/05/03 16:14:39;;;;;;;7.00;2.90;;;;;;;19.19;25.81;100760.29;109461;1234;72274;-78
2022/05/03 16:21:14;;;;;;;5.60;2.80;;;;;;;19.10;26.48;100756.39;111518;1230;72031;-80
2022/05/03 16:48:38;;;;;;;12.80;4.10;;;;;;;18.87;28.26;100755.30;109132;1237;59851;-77
2022/05/03 16:51:39;;;;;;;13.30;3.90;;;;;;;18.84;28.37;100754.11;109406;1236;61973;-81
2022/05/03 16:58:44;;;;;;;10.10;4.60;;;;;;;18.45;30.16;100763.09;109740;1234;73083;-76
2022/05/03 17:02:17;;;;;;;9.30;3.80;;;;;;;18.34;30.52;100762.20;110027;1235;70047;-84
2022/05/03 17:08:12;;;;;;;15.60;4.70;;;;;;;17.87;31.48;100765.45;109506;1236;58935;-79
2022/05/03 17:10:59;;;;;;;14.00;4.60;;;;;;;17.79;32.10;100766.42;110070;1234;60431;-78
2022/05/03 17:23:37;;;;;;;13.90;4.60;;;;;;;16.67;36.57;100778.08;109047;1237;70576;-77
2022/05/03 17:26:06;;;;;;;11.70;5.00;;;;;;;16.33;39.39;100781.51;109324;1234;71717;-76
2022/05/03 17:30:10;;;;;;;11.10;4.60;;;;;;;16.04;40.11;100782.13;109178;1235;61332;-77
2022/05/03 17:41:59;;;;;;;9.20;5.30;;;;;;;14.55;46.26;100800.77;110111;1234;72716;-78
2022/05/03 17:48:10;;;;;;;13.40;6.20;;;;;;;14.16;48.95;100807.61;110920;1233;72963;-83
2022/05/03 17:51:19;;;;;;;10.60;6.70;;;;;;;13.86;49.00;100783.48;111487;1229;60437;-79
2022/05/03 17:53:53;;;;;;;14.20;7.90;;;;;;;13.92;48.64;100815.11;110838;1231;60989;-80
2022/05/03 17:56:28;;;;;;;17.20;8.20;;;;;;;13.84;50.26;100819.98;110590;1232;72095;-80
2022/05/03 17:58:56;;;;;;;12.30;6.00;;;;;;;13.80;50.69;100825.36;110051;1233;70520;-79
2022/05/03 18:01:49;;;;;;;12.50;5.80;;;;;;;13.66;51.51;100833.20;109708;1233;536847;-78
2022/05/03 18:16:37;;;;;;;12.90;6.00;;;;;;;13.49;51.47;100841.79;110953;1234;73156;-81
2022/05/03 18:19:43;;;;;;;15.70;7.70;;;;;;;13.50;50.59;100842.19;111052;1233;72658;-82
2022/05/03 18:22:11;;;;;;;11.70;6.50;;;;;;;13.53;51.22;100844.23;110909;1235;70502;-82
2022/05/03 18:52:41;;;;;;;12.20;6.90;;;;;;;12.73;55.39;100866.23;110453;1230;955931;-87
2022/05/03 19:16:26;;;;;;;13.60;7.80;;;;;;;12.45;57.18;100865.66;111181;1228;58701;31
2022/05/03 20:07:55;;;;;;;12.80;6.80;;;;;;;11.71;57.14;100862.52;111067;1230;59123;-76
2022/05/03 20:10:25;;;;;;;11.60;6.00;;;;;;;11.70;57.94;100863.99;110204;1231;71558;-83
2022/05/03 20:12:57;;;;;;;11.90;6.70;;;;;;;11.67;57.15;100866.48;111287;1231;70515;-77
2022/05/03 20:16:21;;;;;;;11.20;6.80;;;;;;;11.65;56.66;100866.33;110857;1230;69861;31
2022/05/03 21:09:00;;;;;;;11.10;6.10;;;;;;;11.52;55.12;100880.33;111549;1230;61479;-85
2022/05/03 21:23:52;;;;;;;7.90;5.10;;;;;;;11.37;55.46;100883.17;111112;1230;70041;-85
2022/05/03 21:47:34;;;;;;;9.80;6.40;;;;;;;10.91;58.79;100892.61;111241;1230;70137;31
2022/05/03 21:50:04;;;;;;;11.00;5.80;;;;;;;10.86;56.80;100892.91;110913;1234;71562;-83
2022/05/03 22:00:48;;;;;;;9.40;5.40;;;;;;;10.90;58.80;100891.43;111355;1233;73048;-84
2022/05/03 22:03:16;;;;;;;8.50;5.00;;;;;;;10.89;57.18;100891.70;111119;1233;71771;-84
2022/05/03 22:10:26;;;;;;;8.00;5.20;;;;;;;11.23;55.17;100882.96;111162;1230;73289;31
2022/05/03 22:12:57;;;;;;;8.40;5.30;;;;;;;11.28;55.36;100885.58;111080;1235;60805;-83
2022/05/03 22:15:26;;;;;;;6.80;4.60;;;;;;;11.16;54.62;100870.80;110899;1235;59226;-85
2022/05/03 22:17:59;;;;;;;9.50;5.30;;;;;;;11.18;55.38;100879.32;111119;1235;71196;-86
2022/05/03 22:20:30;;;;;;;7.10;5.00;;;;;;;11.03;56.56;100861.27;110985;1235;70406;-84
2022/05/03 22:22:58;;;;;;;11.20;5.40;;;;;;;11.00;57.42;100862.89;111211;1233;69406;-81
2022/05/03 22:25:30;;;;;;;8.20;4.90;;;;;;;11.10;58.15;100883.21;110871;1234;73972;-82
2022/05/03 22:27:57;;;;;;;8.20;4.50;;;;;;;11.05;56.18;100882.71;110814;1235;59389;-84
2022/05/03 22:34:25;;;;;;;8.80;5.20;;;;;;;11.07;56.67;100864.25;111211;1230;71180;31
2022/05/03 22:36:53;;;;;;;8.00;4.90;;;;;;;11.15;56.36;100873.10;111182;1230;71278;-81
2022/05/03 22:39:21;;;;;;;8.10;5.10;;;;;;;11.19;56.27;100871.23;110545;1234;69992;-81
2022/05/03 22:41:48;;;;;;;8.90;5.30;;;;;;;11.24;56.58;100868.83;110454;1234;72869;-81
2022/05/03 22:44:16;;;;;;;10.10;5.30;;;;;;;11.28;57.27;100865.22;110648;1233;58746;-84
2022/05/03 22:46:43;;;;;;;9.40;5.00;;;;;;;11.31;57.13;100865.10;110222;1235;59646;-80
2022/05/03 22:49:10;;;;;;;9.10;4.80;;;;;;;11.34;56.57;100865.27;110047;1235;73619;-80
2022/05/03 22:51:38;;;;;;;10.00;5.10;;;;;;;11.37;56.44;100867.45;110123;1233;71057;-82
2022/05/03 22:54:08;;;;;;;9.40;5.30;;;;;;;11.39;57.40;100865.39;110208;1235;67918;-81
2022/05/03 22:56:35;;;;;;;8.00;4.90;;;;;;;11.42;56.01;100860.68;110393;1234;71149;-80
2022/05/03 22:59:03;;;;;;;9.40;5.50;;;;;;;11.47;56.89;100862.27;110334;1234;61753;-82
2022/05/03 23:01:31;;;;;;;6.40;4.40;;;;;;;11.49;56.21;100858.04;110178;1235;60774;-81
2022/05/03 23:03:58;;;;;;;7.30;5.10;;;;;;;11.53;55.82;100857.08;110404;1234;72746;-82
2022/05/03 23:06:26;;;;;;;6.40;4.70;;;;;;;11.60;56.14;100857.06;110818;1235;71492;-82
2022/05/03 23:08:53;;;;;;;7.30;4.60;;;;;;;11.64;55.55;100845.58;111141;1234;68334;-83
2022/05/03 23:11:28;;;;;;;10.60;4.60;;;;;;;11.71;55.73;100846.82;110857;1231;73101;-85
2022/05/03 23:13:55;;;;;;;9.40;5.10;;;;;;;11.77;55.04;100846.27;111036;1235;60894;-84
2022/05/03 23:16:23;;;;;;;9.30;4.80;;;;;;;11.80;55.27;100843.20;111365;1234;59735;-85
2022/05/03 23:18:51;;;;;;;9.80;4.70;;;;;;;11.90;54.75;100851.34;111116;1235;71498;-85
2022/05/03 23:21:19;;;;;;;8.60;5.00;;;;;;;12.04;54.24;100848.38;110929;1235;71445;-83
2022/05/03 23:23:47;;;;;;;7.30;4.30;;;;;;;12.04;54.55;100849.66;110807;1236;70547;-82
2022/05/03 23:26:21;;;;;;;7.60;4.40;;;;;;;12.06;54.75;100854.35;110849;1233;71656;31
2022/05/03 23:28:49;;;;;;;6.20;4.30;;;;;;;12.03;54.43;100853.87;111388;1233;58843;-85
2022/05/03 23:31:17;;;;;;;6.50;4.70;;;;;;;11.96;55.53;100857.21;111092;1233;60804;-82
2022/05/03 23:33:45;;;;;;;7.20;4.40;;;;;;;11.89;56.05;100855.13;111377;1233;71218;-83
2022/05/03 23:36:12;;;;;;;8.70;4.80;;;;;;;11.82;56.92;100854.05;111263;1231;70207;-85
2022/05/03 23:38:40;;;;;;;10.10;4.90;;;;;;;11.70;58.17;100853.89;111422;1230;67865;-79
2022/05/03 23:41:09;;;;;;;6.40;5.00;;;;;;;11.66;57.53;100859.77;110880;1235;71227;-84
2022/05/03 23:43:39;;;;;;;7.20;4.90;;;;;;;11.62;57.66;100861.98;110950;1235;58887;-84
2022/05/03 23:46:10;;;;;;;8.80;5.10;;;;;;;11.42;58.57;100835.77;111027;1235;60860;-83
2022/05/03 23:48:39;;;;;;;8.30;4.50;;;;;;;11.54;59.26;100865.01;111196;1235;71481;-86
2022/05/03 23:51:07;;;;;;;6.00;4.80;;;;;;;11.44;58.60;100863.53;111188;1233;69972;-83
2022/05/03 23:53:35;;;;;;;8.60;4.40;;;;;;;11.46;57.53;100874.89;111322;1231;67899;-83
2022/05/03 23:56:03;;;;;;;6.50;4.50;;;;;;;11.39;56.85;100879.19;111334;1232;73423;-83
2022/05/03 23:58:31;;;;;;;7.90;4.30;;;;;;;11.30;56.82;100875.65;110801;1233;59234;-81
